Skip to main content

NOAA/GLERL Met Station at Muskegon, MI

Previous 5 days (top of hour only)
See also Previous 3 Hours (2 minute increments)
Jump down to Data
Switch to [English][Metric]
Zoom: Click and drag, Pan: shift-click and drag, Unzoom: double-click, Unzoom All






Note: Speed = mean wind during 2-minute period at top of hour,
Gust = max wind during 2-minute period at top of hour,
Peak = max wind during entire hour.
• See also 5-day windrose plot


NOAA/GLERL Met Station at Muskegon, MI

Previous 5 days (top of hour only)
See also Previous 3 Hours (2 minute increments)
Jump up to Graphs
Switch to [English][Metric]
                  Wind  Wind  Wind   Air   Dew   Rel     Sta   PAR
                   Spd   Gst   Dir  Temp    Pt   Hum    Pres uE/m2/
YYYY-MM-DD   EST   kts   kts   deg     F     F     %   in Hg   sec
2017-11-22 18:00   8.9  10.3   272  32.2  23.5  70.1   29.60     2
2017-11-22 17:00   8.0  10.5   265  32.4  22.6  66.9   29.60    38
2017-11-22 16:00   7.6   8.7   270  33.3  22.7  64.8   29.63   263
2017-11-22 15:00   7.0   9.9   267  32.9  21.6  62.8   29.62   875
2017-11-22 14:00   9.3  11.9   291  32.9  22.2  64.5   29.64   314
2017-11-22 13:00   8.7  10.3   286  33.1  21.2  61.2   29.65   595
2017-11-22 11:00   2.1   2.7    99  31.5  17.4  55.6   29.68   391
2017-11-22 10:00   3.3   5.6    53  31.3  17.7  56.9   29.67   220
2017-11-22 09:00   4.9   5.8    45  30.6  18.1  59.5   29.66    93
2017-11-22 08:00   5.6   7.2    41  30.0  18.5  61.9   29.65    12
2017-11-22 07:00   3.7   5.1    26  30.0  18.7  62.3   29.64     2
2017-11-22 06:00  11.5  13.2    28  30.2  18.7  61.9   29.62     2
2017-11-22 05:00   8.9  11.5    22  30.0  19.0  63.1   29.60     2
2017-11-22 04:00   7.0   8.7    24  30.0  18.6  62.1   29.59     2
2017-11-22 03:00   5.6   8.0    43  29.7  17.8  60.9   29.57     2
2017-11-22 02:00   7.6  14.0    37  29.5  17.4  60.3   29.54     2
2017-11-22 01:00  13.4  15.9    20  30.0  18.7  62.4   29.52     2
2017-11-22 00:00  13.8  18.3    14  31.3  21.1  65.6   29.50     2
2017-11-21 23:00  11.7  14.0    19  32.4  20.7  61.9   29.48     2
2017-11-21 22:00  12.6  16.5    31  32.9  21.3  62.0   29.45     2
2017-11-21 21:00  14.2  18.5     7  33.6  21.0  59.4   29.44     2
2017-11-21 20:00  15.9  17.9    20  34.3  20.6  56.9   29.42     2
2017-11-21 19:00  12.4  17.5     4  34.7  20.6  56.1   29.39     2
2017-11-21 18:00  23.3  27.4     2  35.6  23.6  61.4   29.34     2
2017-11-21 17:00  23.5  27.2   351  37.0  26.8  66.2   29.30     9
2017-11-21 16:00  25.5  28.0   335  37.6  28.1  68.2   29.25   181
2017-11-21 15:00  23.7  27.0   337  38.3  28.5  67.5   29.20   324
2017-11-21 14:00  27.8  30.9   336  39.4  28.1  63.7   29.17   448
2017-11-21 13:00  26.8  29.0   340  40.5  29.5  64.7   29.14   319
2017-11-21 12:00  21.4  25.5   329  42.4  28.9  58.4   29.11   254
2017-11-21 11:00  22.9  24.5   326  44.6  29.6  55.3   29.08   113
2017-11-21 10:00  20.4  22.6   282  45.7  38.9  76.8   29.04   122
2017-11-21 09:00  22.9  25.1   268  46.2  39.5  77.1   29.01    48
2017-11-21 08:00  27.6  30.5   258  46.4  38.8  74.6   28.96    26
2017-11-21 07:00  27.6  31.1   249  46.2  39.0  75.7   28.93     2
2017-11-21 06:00  29.7  34.2   252  46.4  38.9  74.7   28.95     2
2017-11-21 05:00  27.6  31.3   251  46.4  39.1  75.4   28.95     2
2017-11-21 04:00  32.3  36.5   248  46.4  37.9  72.0   28.95     2
2017-11-21 03:00  32.5  35.2   239  46.6  37.8  71.1   28.95     2
2017-11-21 02:00  27.8  32.3   235  46.6  38.2  72.2   28.98     2
2017-11-21 01:00  31.1  33.8   228  46.6  38.2  72.3   28.99     2
2017-11-21 00:00  33.0  37.3   226  46.8  38.4  72.4   29.01     2
2017-11-20 23:00  30.1  34.8   228  46.9  38.7  72.8   29.03     2
2017-11-20 22:00  34.4  37.9   226  47.1  38.9  72.7   29.05     2
2017-11-20 21:00  33.4  39.7   233  47.8  38.8  70.7   29.06     2
2017-11-20 20:00  32.3  35.4   228  48.4  39.9  72.1   29.06     2
2017-11-20 19:00  30.9  34.2   221  48.2  40.4  74.0   29.06     2
2017-11-20 18:00  28.2  30.1   217  47.5  40.0  75.1   29.07     2
2017-11-20 17:00  23.7  27.0   216  46.8  39.3  74.9   29.11    81
2017-11-20 16:00  24.9  28.0   217  46.4  38.1  72.4   29.12   657
2017-11-20 15:00  23.9  26.8   211  46.0  37.2  70.9   29.14   961
2017-11-20 14:00  22.4  24.9   221  44.8  36.7  73.1   29.17  1365
2017-11-20 13:00  22.6  24.1   228  44.1  36.5  74.5   29.19  1568
2017-11-20 12:00  20.0  22.9   233  43.9  36.5  75.0   29.22  1249
2017-11-20 11:00  19.1  22.0   242  43.0  35.7  75.3   29.25  1452
2017-11-20 10:00  21.8  24.1   250  42.6  35.1  74.5   29.25   786
2017-11-20 09:00  21.4  23.9   254  42.3  34.8  74.5   29.25   497
2017-11-20 08:00  22.4  24.9   256  42.8  35.5  75.0   29.27    73
2017-11-20 07:00  20.6  22.2   261  43.2  35.8  75.0   29.28     2
2017-11-20 06:00  22.2  23.5   274  42.3  34.5  73.7   29.28     2
2017-11-20 05:00  21.0  22.7   274  41.5  34.6  76.1   29.29     2
2017-11-20 04:00  18.7  22.2   276  41.2  33.8  74.8   29.30     2
2017-11-20 03:00  22.6  24.3   277  40.6  33.0  73.8   29.32     2
2017-11-20 02:00  22.2  23.9   277  39.7  31.4  71.8   29.33     2
2017-11-20 01:00  22.7  25.5   285  38.3  29.7  71.0   29.36     2
2017-11-20 00:00  21.2  23.1   289  37.4  27.2  66.4   29.36     2
2017-11-19 23:00  20.0  22.9   286  37.2  27.8  68.5   29.36     2
2017-11-19 22:00  18.5  21.0   291  36.3  24.5  62.0   29.36     2
2017-11-19 21:00  20.2  24.1   301  35.4  23.9  62.5   29.36     2
2017-11-19 20:00  20.6  22.4   303  34.9  22.9  61.3   29.36     2
2017-11-19 19:00  18.5  23.1   302  34.3  22.8  62.3   29.36     2
2017-11-19 18:00  17.7  19.6   306  33.4  22.0  62.6   29.35     2
2017-11-19 17:00  17.7  19.6   318  32.4  21.8  64.7   29.35    67
2017-11-19 16:00  18.9  21.2   321  32.0  22.6  67.8   29.34   248
2017-11-19 15:00  18.7  21.8   328  31.3  22.8  70.6   29.34   187
2017-11-19 14:00  20.2  22.6   311  31.3  22.4  69.5   29.34   166
2017-11-19 13:00  18.9  21.6   337  31.6  21.6  66.0   29.33   143
2017-11-19 12:00  18.1  21.2   320  31.6  22.1  67.4   29.32   179
2017-11-19 11:00  19.8  22.9   328  32.4  23.2  68.8   29.32   176
2017-11-19 10:00  20.0  23.7   331  32.7  23.2  67.8   29.30   105
2017-11-19 09:00  21.0  24.3   322  33.6  24.9  70.2   29.28    29
2017-11-19 08:00  23.7  26.2   333  34.3  25.7  70.5   29.25     6
2017-11-19 07:00  20.0  22.6   334  34.9  27.5  74.1   29.23     2
2017-11-19 06:00  20.2  25.3   343  36.1  28.0  71.9   29.22     2
2017-11-19 05:00  26.2  29.7   344  36.9  27.3  68.1   29.18     2
2017-11-19 04:00  22.0  25.5   345  37.4  29.2  72.1   29.18     2
2017-11-19 03:00  25.3  27.6   349  37.4  29.8  73.8   29.16     2
2017-11-19 02:00   9.7  13.8    28  34.3  31.4  88.9   29.13     2
2017-11-19 01:00  28.4  32.1   354  36.1  33.1  88.4   29.12     2
2017-11-19 00:00  18.7  24.3     3  37.0  32.1  82.0   29.09     2
2017-11-18 23:00  24.1  29.5     3  37.8  33.7  85.1   29.06     2
2017-11-18 22:00  16.1  19.6    20  37.6  34.4  88.2   29.02     2
2017-11-18 21:00  18.1  22.7     7  39.7  34.1  79.9   28.98     2
2017-11-18 20:00  20.2  26.0     7  40.6  33.3  74.7   28.95     2
2017-11-18 19:00  18.5  24.1     1  40.6  37.1  87.2   28.93     2
2017-11-18 18:00  13.2  19.2    13  40.3  37.9  91.1   28.90     2
2017-11-18 17:00  13.4  16.5    16  40.5  38.2  91.4   28.88    11
2017-11-18 16:00  18.5  22.6    22  41.0  38.1  89.4   28.84    31
2017-11-18 15:00  13.8  18.1     8  41.2  39.4  93.4   28.83    65
2017-11-18 14:00   7.4   9.3    27  40.5  39.5  96.2   28.81    94
2017-11-18 13:00  10.3  13.6    37  39.9  38.7  95.3   28.81   164
2017-11-18 12:00  12.2  14.8    24  39.7  37.9  92.9   28.85   116
2017-11-18 11:00   7.0   9.3     4  41.0  39.4  93.8   28.87    58
2017-11-18 10:00   1.9   2.7     9  41.2  39.2  92.6   28.88    28
2017-11-18 09:00   2.7   3.7    26  41.2  39.2  92.7   28.89    37
2017-11-18 08:00   5.4   7.2    69  41.2  39.1  92.2   28.87    21
2017-11-18 07:00   6.6   8.7    39  41.4  39.2  91.9   28.88     2
2017-11-18 06:00   9.1  10.3    26  42.1  40.1  92.6   28.90     2
2017-11-18 05:00   8.9  10.7    20  43.5  40.5  89.1   28.90     2
2017-11-18 04:00  14.0  14.6   330  44.4  41.8  90.4   28.90     2
2017-11-18 03:00  11.7  12.2   307  45.3  42.9  91.2   28.91     2
2017-11-18 02:00  16.5  18.3   275  46.0  44.6  94.6   28.94     2
2017-11-18 01:00  18.7  20.0   236  45.7  44.7  96.5   28.95     2
2017-11-18 00:00  21.6  23.3   228  45.3  44.3  96.1   28.98     2
2017-11-17 23:00  16.9  18.7   199  43.7  43.1  97.8   29.00     2
2017-11-17 22:00  11.3  12.4   175  40.8  40.1  97.3   29.02     2
2017-11-17 21:00   2.3   4.5   167  41.5  37.3  84.6   29.05     2
2017-11-17 20:00  12.8  18.5   159  41.4  36.2  81.7   29.05     2
2017-11-17 19:00  13.2  18.9   159  40.8  36.4  83.9   29.10     2